Time;durP1;ratioP1;P1;durP2;ratioP2;P2;SDS_P1;SDS_P2;PMS_P1;PMS_P2;Temp;Humidity;BMP_temperature;BMP_pressure;BME280_temperature;BME280_humidity;BME280_pressure;Samples;Min_cycle;Max_cycle;Signal;HPM_P1;HPM_P2
2022/08/24 00:01:42;;;;;;;4.97;4.67;;;19.00;94.70;;;;;;5076900;28;20450;-82
2022/08/24 00:04:09;;;;;;;5.57;5.17;;;18.90;94.70;;;;;;5076085;28;20457;-80
2022/08/24 00:06:36;;;;;;;5.50;5.20;;;18.90;95.00;;;;;;5076930;28;20455;-82
2022/08/24 00:09:03;;;;;;;5.30;4.90;;;18.90;94.60;;;;;;5087338;28;20895;-82
2022/08/24 00:11:31;;;;;;;6.00;5.50;;;18.90;94.60;;;;;;5088296;28;20440;-82
2022/08/24 00:13:58;;;;;;;6.03;5.60;;;18.90;94.60;;;;;;5087187;28;20447;-82
2022/08/24 00:16:25;;;;;;;4.40;4.10;;;18.90;94.70;;;;;;5087200;28;20485;-82
2022/08/24 00:18:53;;;;;;;5.13;4.73;;;18.90;94.80;;;;;;5086737;28;20570;-83
2022/08/24 00:21:20;;;;;;;5.37;4.97;;;18.90;94.80;;;;;;5087043;28;20458;-83
2022/08/24 00:23:48;;;;;;;5.20;4.80;;;18.90;94.80;;;;;;5087318;28;20451;-82
2022/08/24 00:26:15;;;;;;;5.03;4.73;;;18.80;94.90;;;;;;5087491;28;20446;-83
2022/08/24 00:28:43;;;;;;;5.40;5.00;;;18.80;94.90;;;;;;5086224;28;20478;-83
2022/08/24 00:31:11;;;;;;;5.93;5.43;;;18.80;95.20;;;;;;5087190;28;20474;-83
2022/08/24 00:33:39;;;;;;;5.90;5.30;;;18.80;94.90;;;;;;5087491;28;20458;-83
2022/08/24 00:36:06;;;;;;;5.83;4.80;;;18.80;94.80;;;;;;5086811;28;20479;-83
2022/08/24 00:38:34;;;;;;;4.77;4.57;;;18.80;94.80;;;;;;5087065;28;20481;-82
2022/08/24 00:41:01;;;;;;;5.20;4.80;;;18.80;95.10;;;;;;5081597;28;20856;-82
2022/08/24 00:43:29;;;;;;;4.90;4.40;;;18.80;94.90;;;;;;5076252;28;20461;-80
2022/08/24 00:46:17;;;;;;;5.33;4.87;;;18.80;95.00;;;;;;5076165;28;20458;-82
2022/08/24 00:48:48;;;;;;;5.40;4.90;;;18.80;95.40;;;;;;5092888;28;20470;-79
2022/08/24 00:51:20;;;;;;;5.13;4.83;;;18.70;95.20;;;;;;5091706;28;20446;-82
2022/08/24 00:53:50;;;;;;;4.50;4.30;;;18.60;95.60;;;;;;5076378;28;20455;-81
2022/08/24 00:56:21;;;;;;;5.00;4.70;;;18.70;95.30;;;;;;5075391;28;21054;-82
2022/08/24 00:58:50;;;;;;;5.53;5.13;;;18.70;95.30;;;;;;5080486;28;20499;-82
2022/08/24 01:01:19;;;;;;;7.10;6.07;;;18.60;95.50;;;;;;5086521;28;20446;-82
2022/08/24 01:03:46;;;;;;;4.70;4.40;;;18.60;95.60;;;;;;5086843;28;20454;-81
2022/08/24 01:06:14;;;;;;;4.83;4.53;;;18.70;95.50;;;;;;5086744;28;20598;-83
2022/08/24 01:08:42;;;;;;;5.90;5.40;;;18.60;95.30;;;;;;5086448;28;20462;-83
2022/08/24 01:11:12;;;;;;;5.57;5.17;;;18.60;95.50;;;;;;5086458;28;20453;-82
2022/08/24 01:13:42;;;;;;;5.60;5.20;;;18.60;95.80;;;;;;5081718;28;20447;-80
2022/08/24 01:16:10;;;;;;;5.77;5.47;;;18.50;95.50;;;;;;5082359;28;20522;-82
2022/08/24 01:18:50;;;;;;;5.47;5.07;;;18.50;95.50;;;;;;5081281;28;20871;-82
2022/08/24 01:21:28;;;;;;;5.83;5.37;;;18.60;95.60;;;;;;5078606;28;21005;-81
2022/08/24 01:23:59;;;;;;;4.93;4.63;;;18.60;95.60;;;;;;5081462;28;20447;-80
2022/08/24 01:26:32;;;;;;;4.43;4.23;;;18.60;95.60;;;;;;5078802;28;20447;-82
2022/08/24 01:29:05;;;;;;;5.40;5.10;;;18.50;95.70;;;;;;5075576;28;20538;-82
2022/08/24 01:31:33;;;;;;;5.83;5.43;;;18.50;95.60;;;;;;5076706;28;20450;-82
2022/08/24 01:34:02;;;;;;;4.50;4.23;;;18.50;95.80;;;;;;5080540;28;20587;-81
2022/08/24 01:36:32;;;;;;;5.57;5.23;;;18.50;96.20;;;;;;5082034;28;20490;-81
2022/08/24 01:39:05;;;;;;;5.13;4.83;;;18.50;96.40;;;;;;5085396;28;20466;-82
2022/08/24 01:41:32;;;;;;;5.07;4.77;;;18.50;96.60;;;;;;5089439;28;20451;-82
2022/08/24 01:43:59;;;;;;;5.50;5.20;;;18.40;96.60;;;;;;5089000;28;20955;-82
2022/08/24 01:46:26;;;;;;;6.03;5.63;;;18.40;96.60;;;;;;5085332;28;20458;-81
2022/08/24 01:48:53;;;;;;;6.30;5.80;;;18.40;97.00;;;;;;5087307;28;20471;-82
2022/08/24 01:51:20;;;;;;;6.03;5.50;;;18.30;97.30;;;;;;5085662;28;20454;-80
2022/08/24 01:53:48;;;;;;;6.30;5.67;;;18.30;97.60;;;;;;5086071;28;20453;-82
2022/08/24 01:56:17;;;;;;;5.53;5.13;;;18.30;97.80;;;;;;5085773;28;20574;-81
2022/08/24 01:58:44;;;;;;;5.50;5.20;;;18.20;97.80;;;;;;5086397;28;20481;-81
2022/08/24 02:01:11;;;;;;;5.73;5.13;;;18.20;98.00;;;;;;5087428;28;20454;-82
2022/08/24 02:03:38;;;;;;;5.10;4.70;;;18.20;98.10;;;;;;5086812;28;20447;-82
2022/08/24 02:06:06;;;;;;;5.57;5.07;;;18.20;98.10;;;;;;5084519;28;20512;-81
2022/08/24 02:08:34;;;;;;;6.07;5.70;;;18.10;98.30;;;;;;5082773;28;20498;-82
2022/08/24 02:11:02;;;;;;;6.37;5.97;;;18.10;98.90;;;;;;5080887;28;20455;-81
2022/08/24 02:13:30;;;;;;;7.43;6.43;;;18.10;99.20;;;;;;5082084;28;20478;-80
2022/08/24 02:15:57;;;;;;;7.13;6.60;;;18.00;99.40;;;;;;5085103;28;20480;-81
2022/08/24 02:18:24;;;;;;;6.60;6.20;;;18.00;99.70;;;;;;5084247;28;20506;-81
2022/08/24 02:20:52;;;;;;;6.23;5.80;;;18.00;99.90;;;;;;5088967;28;20889;-81
2022/08/24 02:23:19;;;;;;;7.40;6.80;;;18.00;99.90;;;;;;5086060;28;20474;-81
2022/08/24 02:25:46;;;;;;;6.83;5.87;;;17.90;99.90;;;;;;5084732;28;20454;-82
2022/08/24 02:28:13;;;;;;;7.30;6.80;;;17.90;99.90;;;;;;5084316;28;20475;-82
2022/08/24 02:30:41;;;;;;;6.37;5.87;;;17.90;99.90;;;;;;5085443;28;20451;-81
2022/08/24 02:33:08;;;;;;;7.10;6.70;;;17.90;99.90;;;;;;5084868;28;20939;-81
2022/08/24 02:35:37;;;;;;;6.83;6.33;;;17.90;99.90;;;;;;5083691;28;20492;-81
2022/08/24 02:38:04;;;;;;;6.63;6.03;;;17.80;99.90;;;;;;5081881;28;20478;-82
2022/08/24 02:40:31;;;;;;;7.60;7.10;;;17.80;99.90;;;;;;5083769;28;20500;-82
2022/08/24 02:42:58;;;;;;;5.80;5.50;;;17.80;99.90;;;;;;5084977;28;20458;-82
2022/08/24 02:45:25;;;;;;;5.80;5.40;;;17.70;99.90;;;;;;5089442;28;20917;-81
2022/08/24 02:47:53;;;;;;;6.33;5.93;;;17.70;99.90;;;;;;5088861;28;20465;-81
2022/08/24 02:50:20;;;;;;;5.87;5.37;;;17.70;99.90;;;;;;5080193;28;20478;-83
2022/08/24 02:52:47;;;;;;;7.00;6.50;;;17.70;99.90;;;;;;5082534;28;20462;-81
2022/08/24 02:55:17;;;;;;;6.90;6.50;;;17.60;99.90;;;;;;5079879;28;20461;-80
2022/08/24 02:57:46;;;;;;;6.93;6.50;;;17.60;99.90;;;;;;5077485;28;20457;-81
2022/08/24 03:00:15;;;;;;;6.70;6.30;;;17.60;99.90;;;;;;5086833;28;20515;-78
2022/08/24 03:02:42;;;;;;;6.27;5.87;;;17.50;99.90;;;;;;5094464;28;20444;-78
2022/08/24 03:05:10;;;;;;;9.97;6.53;;;17.50;99.90;;;;;;5090640;28;20912;-81
2022/08/24 03:07:37;;;;;;;7.57;6.97;;;17.50;99.90;;;;;;5086677;28;20447;-82
2022/08/24 03:10:06;;;;;;;7.03;6.33;;;17.50;99.90;;;;;;5087380;28;20462;-79
2022/08/24 03:12:34;;;;;;;6.90;6.30;;;17.40;99.90;;;;;;5078908;28;20454;-82
2022/08/24 03:15:02;;;;;;;6.77;6.20;;;17.40;99.90;;;;;;5079126;28;20859;-81
2022/08/24 03:17:30;;;;;;;7.13;6.60;;;17.30;99.90;;;;;;5078146;28;20490;-83
2022/08/24 03:19:57;;;;;;;8.13;7.27;;;17.30;99.90;;;;;;5081822;28;20941;-81
2022/08/24 03:22:25;;;;;;;8.17;7.40;;;17.30;99.90;;;;;;5080670;28;20446;-82
2022/08/24 03:24:51;;;;;;;7.30;6.70;;;17.30;99.90;;;;;;5078882;28;20453;-82
2022/08/24 03:27:19;;;;;;;6.73;6.23;;;17.20;99.90;;;;;;5076821;28;20465;-82
2022/08/24 03:29:46;;;;;;;7.80;7.20;;;17.20;99.90;;;;;;5079479;28;20474;-82
2022/08/24 03:32:16;;;;;;;6.87;6.40;;;17.20;99.90;;;;;;5077133;28;21167;-82
2022/08/24 03:34:43;;;;;;;7.60;7.03;;;17.20;99.90;;;;;;5076700;28;20465;-80
2022/08/24 03:37:10;;;;;;;6.60;6.07;;;17.10;99.90;;;;;;5079361;28;21014;-81
2022/08/24 03:39:38;;;;;;;8.20;7.50;;;17.10;99.90;;;;;;5085747;28;20508;-81
2022/08/24 03:42:05;;;;;;;6.80;6.40;;;17.00;99.90;;;;;;5087845;28;20446;-81
2022/08/24 03:44:32;;;;;;;7.30;6.80;;;17.00;99.90;;;;;;5078033;28;20450;-82
2022/08/24 03:46:59;;;;;;;7.37;6.87;;;17.00;99.90;;;;;;5080032;28;20446;-81
2022/08/24 03:49:26;;;;;;;7.90;7.40;;;16.90;99.90;;;;;;5079682;28;20474;-82
2022/08/24 03:51:53;;;;;;;7.40;6.97;;;16.90;99.90;;;;;;5078317;28;20465;-81
2022/08/24 03:54:21;;;;;;;7.67;7.17;;;16.90;99.90;;;;;;5078191;28;20971;-83
2022/08/24 03:56:55;;;;;;;8.03;7.40;;;16.90;99.90;;;;;;5078009;28;20543;-81
2022/08/24 03:59:22;;;;;;;8.37;7.40;;;16.90;99.90;;;;;;5078228;28;20468;-82
2022/08/24 04:01:49;;;;;;;7.50;6.90;;;16.80;99.90;;;;;;5078954;28;20457;-81
2022/08/24 04:04:16;;;;;;;9.33;8.73;;;16.80;99.90;;;;;;5078680;28;20449;-83
2022/08/24 04:06:45;;;;;;;7.80;7.30;;;16.80;99.90;;;;;;5078641;28;20456;-81
2022/08/24 04:09:18;;;;;;;7.03;6.53;;;16.70;99.90;;;;;;5078590;28;20482;-81
2022/08/24 04:11:45;;;;;;;7.93;7.33;;;16.70;99.90;;;;;;5079572;28;20947;-82
2022/08/24 04:14:15;;;;;;;7.40;6.87;;;16.70;99.90;;;;;;5085058;28;20451;-83
2022/08/24 04:16:44;;;;;;;8.70;8.10;;;16.60;99.90;;;;;;5078390;28;20522;-84
2022/08/24 04:19:13;;;;;;;7.80;7.23;;;16.60;99.90;;;;;;5077758;28;20524;-81
2022/08/24 04:21:40;;;;;;;7.87;7.27;;;16.60;99.90;;;;;;5078757;28;20541;-81
2022/08/24 04:24:09;;;;;;;9.20;8.50;;;16.60;99.90;;;;;;5078314;28;20466;-81
2022/08/24 04:26:38;;;;;;;7.80;7.20;;;16.60;99.90;;;;;;5078709;28;20460;-81
2022/08/24 04:29:08;;;;;;;7.97;7.10;;;16.50;99.90;;;;;;5077909;28;20493;-81
2022/08/24 04:31:39;;;;;;;7.47;6.97;;;16.50;99.90;;;;;;5077884;28;20482;-81
2022/08/24 04:34:08;;;;;;;7.77;7.37;;;16.50;99.90;;;;;;5078359;28;20467;-81
2022/08/24 04:36:37;;;;;;;9.20;8.50;;;16.50;99.90;;;;;;5077690;28;20553;-79
2022/08/24 04:41:46;;;;;;;7.47;6.97;;;16.60;99.90;;;;;;5078268;28;20446;-81
2022/08/24 04:44:13;;;;;;;8.70;8.00;;;16.60;99.90;;;;;;5077989;28;20486;-82
2022/08/24 04:46:48;;;;;;;9.77;8.67;;;16.60;99.90;;;;;;5078046;28;20465;-80
2022/08/24 04:49:16;;;;;;;7.83;7.23;;;16.60;99.90;;;;;;5078112;28;21010;-83
2022/08/24 04:51:43;;;;;;;8.87;8.10;;;16.60;99.90;;;;;;5078336;28;20450;-83
2022/08/24 04:54:10;;;;;;;9.00;8.40;;;16.60;99.90;;;;;;5078029;28;20442;-82
2022/08/24 04:56:37;;;;;;;7.90;7.30;;;16.70;99.90;;;;;;5077787;28;20477;-84
2022/08/24 04:59:05;;;;;;;9.73;9.03;;;16.70;99.90;;;;;;5077919;28;20473;-82
2022/08/24 05:01:33;;;;;;;10.07;9.33;;;16.70;99.90;;;;;;5078192;28;20446;-84
2022/08/24 05:04:04;;;;;;;10.47;9.80;;;16.80;99.90;;;;;;5078172;28;20478;-82
2022/08/24 05:06:35;;;;;;;10.40;9.53;;;16.80;99.90;;;;;;5084218;28;20468;-83
2022/08/24 05:09:05;;;;;;;11.77;10.90;;;16.90;99.90;;;;;;5085782;28;20474;-82
2022/08/24 05:11:39;;;;;;;9.90;9.17;;;16.90;99.90;;;;;;5082218;28;20467;-82
2022/08/24 05:14:07;;;;;;;11.77;9.30;;;17.00;99.90;;;;;;5081974;28;20509;-82
2022/08/24 05:16:36;;;;;;;11.23;8.20;;;17.00;99.90;;;;;;5081826;28;20532;-82
2022/08/24 05:19:07;;;;;;;11.47;10.47;;;17.10;99.90;;;;;;5085740;28;20469;-80
2022/08/24 05:21:43;;;;;;;9.73;8.93;;;17.10;99.90;;;;;;5087503;28;20519;-81
2022/08/24 05:24:11;;;;;;;9.30;8.60;;;17.20;99.90;;;;;;5083065;28;20488;-82
2022/08/24 05:26:39;;;;;;;10.20;9.27;;;17.20;99.90;;;;;;5080432;28;20453;-81
2022/08/24 05:29:06;;;;;;;9.93;9.00;;;17.30;99.90;;;;;;5080948;28;20896;-81
2022/08/24 05:31:34;;;;;;;9.07;8.13;;;17.40;99.90;;;;;;5081396;28;20538;-82
2022/08/24 05:34:04;;;;;;;9.43;8.63;;;17.40;99.90;;;;;;5081556;28;20454;-82
2022/08/24 05:36:33;;;;;;;7.47;7.00;;;17.50;99.90;;;;;;5081481;28;20517;-82
2022/08/24 05:39:04;;;;;;;9.23;8.37;;;17.60;99.90;;;;;;5081800;28;21066;-82
2022/08/24 05:41:38;;;;;;;9.20;8.13;;;17.70;99.90;;;;;;5081613;28;20474;-83
2022/08/24 05:44:06;;;;;;;7.93;7.33;;;17.70;99.90;;;;;;5081782;28;20462;-82
2022/08/24 05:46:33;;;;;;;8.30;7.40;;;17.80;99.90;;;;;;5081498;28;20447;-82
2022/08/24 05:49:12;;;;;;;7.77;6.97;;;17.90;99.90;;;;;;5078987;28;20985;-81
2022/08/24 05:51:41;;;;;;;7.87;7.27;;;17.90;99.90;;;;;;5080984;28;21027;-82
2022/08/24 05:54:09;;;;;;;7.73;7.23;;;18.00;99.90;;;;;;5081087;28;20447;-82
2022/08/24 05:56:36;;;;;;;8.80;7.90;;;18.10;99.90;;;;;;5081313;28;20510;-82
2022/08/24 05:59:03;;;;;;;8.63;7.43;;;18.20;99.90;;;;;;5080379;28;20864;-82
2022/08/24 06:01:42;;;;;;;7.83;7.20;;;18.30;99.90;;;;;;5086445;28;20456;-82
2022/08/24 06:04:09;;;;;;;8.27;7.67;;;18.40;99.90;;;;;;5081539;28;20462;-82
2022/08/24 06:06:36;;;;;;;8.40;6.43;;;18.50;99.90;;;;;;5081887;28;20447;-83
2022/08/24 06:09:07;;;;;;;9.73;8.83;;;18.60;99.90;;;;;;5080471;28;20476;-82
2022/08/24 06:11:37;;;;;;;8.60;7.70;;;18.70;99.90;;;;;;5081108;28;20455;-82
2022/08/24 06:14:07;;;;;;;9.40;8.63;;;18.80;99.90;;;;;;5081210;28;20497;-82
2022/08/24 06:16:36;;;;;;;11.13;7.53;;;18.90;99.90;;;;;;5080022;28;20476;-83
2022/08/24 06:19:08;;;;;;;7.70;7.20;;;19.00;99.90;;;;;;5079817;28;20867;-82
2022/08/24 06:21:49;;;;;;;7.50;6.80;;;19.10;99.90;;;;;;5081311;28;20458;-82
2022/08/24 06:27:19;;;;;;;7.87;7.27;;;19.10;99.90;;;;;;5080098;28;20551;-83
2022/08/24 06:27:20;;;;;;;23.43;21.13;;;19.30;99.90;;;;;;5083536;28;20822;-80
2022/08/24 06:29:47;;;;;;;85.80;78.30;;;19.40;99.90;;;;;;5084172;28;20475;-80
2022/08/24 06:32:14;;;;;;;10.53;9.57;;;19.50;99.90;;;;;;5082092;28;20452;-83
2022/08/24 06:34:41;;;;;;;10.40;9.47;;;19.70;99.90;;;;;;5081808;28;20452;-81
2022/08/24 06:37:07;;;;;;;18.47;16.30;;;19.90;99.50;;;;;;5081377;28;20486;-80
2022/08/24 06:39:35;;;;;;;10.73;9.67;;;20.00;99.50;;;;;;5081138;28;20475;-82
2022/08/24 06:42:02;;;;;;;8.17;7.47;;;20.20;98.90;;;;;;5088117;28;20448;-79
2022/08/24 06:44:29;;;;;;;6.47;5.97;;;20.30;98.30;;;;;;5087530;28;20461;-82
2022/08/24 06:46:56;;;;;;;7.10;6.50;;;20.40;97.50;;;;;;5085311;28;20470;-81
2022/08/24 06:49:29;;;;;;;6.63;5.90;;;20.50;97.70;;;;;;5085813;28;20469;-81
2022/08/24 06:52:07;;;;;;;6.90;6.30;;;20.60;97.90;;;;;;5089513;28;20525;-83
2022/08/24 06:54:35;;;;;;;7.53;6.82;;;20.80;97.80;;;;;;5083560;28;20513;-80
2022/08/24 06:57:02;;;;;;;7.37;6.67;;;20.90;98.00;;;;;;5081663;28;20222;-80
2022/08/24 06:59:28;;;;;;;10.20;7.53;;;21.00;98.30;;;;;;5080073;28;20473;-79
2022/08/24 07:01:56;;;;;;;8.17;7.53;;;21.10;98.10;;;;;;5080706;28;20444;-81
2022/08/24 07:04:23;;;;;;;7.37;6.67;;;21.30;98.50;;;;;;5079523;28;20803;-81
2022/08/24 07:06:51;;;;;;;12.77;11.53;;;21.40;97.60;;;;;;5079544;28;20449;-80
2022/08/24 07:09:18;;;;;;;21.00;19.20;;;21.50;97.70;;;;;;5079212;28;20498;-81
2022/08/24 07:11:47;;;;;;;11.97;10.87;;;21.60;97.70;;;;;;5081534;28;20476;-81
2022/08/24 07:14:14;;;;;;;11.50;10.50;;;21.70;96.70;;;;;;5084491;28;20452;-81
2022/08/24 07:16:41;;;;;;;14.30;12.90;;;21.90;97.20;;;;;;5080829;28;20914;-82
2022/08/24 07:19:08;;;;;;;8.93;7.90;;;22.00;97.00;;;;;;5079718;28;20482;-82
2022/08/24 07:21:35;;;;;;;38.27;34.97;;;22.10;96.60;;;;;;5079288;28;20458;-81
2022/08/24 07:24:03;;;;;;;8.93;7.33;;;22.20;96.10;;;;;;5079400;28;20453;-81
2022/08/24 07:26:31;;;;;;;7.53;6.83;;;22.30;95.50;;;;;;5078766;28;20458;-80
2022/08/24 07:29:04;;;;;;;8.63;7.93;;;22.40;95.20;;;;;;5077329;28;20479;-80
2022/08/24 07:31:31;;;;;;;47.17;42.67;;;22.50;93.80;;;;;;5078842;28;20454;-81
2022/08/24 07:33:58;;;;;;;9.30;7.37;;;22.60;92.40;;;;;;5080002;28;20451;-82
2022/08/24 07:36:24;;;;;;;8.10;5.37;;;22.70;92.40;;;;;;5081285;28;20970;-82
2022/08/24 07:38:52;;;;;;;7.03;6.03;;;22.70;91.70;;;;;;5080320;28;20476;-81
2022/08/24 07:41:19;;;;;;;9.43;5.80;;;22.80;91.40;;;;;;5081422;28;20466;-80
2022/08/24 07:43:47;;;;;;;7.60;4.83;;;23.00;91.40;;;;;;5081110;28;20447;-81
2022/08/24 07:46:15;;;;;;;5.83;5.03;;;23.00;91.50;;;;;;5083615;28;20558;-77
2022/08/24 07:48:42;;;;;;;7.63;6.37;;;23.10;91.10;;;;;;5087735;28;20490;-77
2022/08/24 07:51:10;;;;;;;9.27;4.87;;;23.10;91.80;;;;;;5088488;28;20484;-77
2022/08/24 07:53:37;;;;;;;9.10;6.17;;;23.10;90.80;;;;;;5083863;28;20466;-80
2022/08/24 07:56:04;;;;;;;6.77;5.97;;;23.10;91.40;;;;;;5081327;28;20581;-80
2022/08/24 07:58:32;;;;;;;8.27;6.63;;;23.10;91.70;;;;;;5081176;28;20490;-80
2022/08/24 08:00:59;;;;;;;7.13;6.43;;;23.10;92.60;;;;;;5082991;28;20474;-80
2022/08/24 08:03:28;;;;;;;7.10;6.40;;;23.10;92.30;;;;;;5082773;28;20447;-80
2022/08/24 08:05:56;;;;;;;11.07;10.13;;;23.20;92.30;;;;;;5080274;28;20478;-82
2022/08/24 08:08:23;;;;;;;19.80;18.23;;;23.20;92.40;;;;;;5079253;28;20463;-82
2022/08/24 08:10:50;;;;;;;12.37;11.23;;;23.20;92.30;;;;;;5079893;28;20447;-83
2022/08/24 08:13:17;;;;;;;10.97;9.83;;;23.30;92.70;;;;;;5079025;28;20465;-82
2022/08/24 08:15:44;;;;;;;5.80;5.30;;;23.40;91.90;;;;;;5078242;28;20451;-83
2022/08/24 08:18:11;;;;;;;5.30;5.00;;;23.50;91.60;;;;;;5078322;28;20495;-82
2022/08/24 08:20:40;;;;;;;6.13;4.40;;;23.60;90.80;;;;;;5079002;28;20445;-82
2022/08/24 08:25:56;;;;;;;6.93;6.43;;;23.80;85.70;;;;;;5078590;28;20431;-82
2022/08/24 08:28:24;;;;;;;30.53;28.03;;;23.90;86.20;;;;;;5079570;28;20563;-83
2022/08/24 08:30:51;;;;;;;9.33;8.60;;;24.20;88.40;;;;;;5080364;28;20448;-83
2022/08/24 08:33:18;;;;;;;7.33;6.63;;;24.30;87.00;;;;;;5078698;28;20933;-82
2022/08/24 08:35:47;;;;;;;5.23;4.83;;;24.40;85.00;;;;;;5080688;28;20470;-81
2022/08/24 08:38:14;;;;;;;5.17;4.80;;;24.50;82.20;;;;;;5078961;28;20491;-81
2022/08/24 08:40:54;;;;;;;5.87;4.57;;;24.60;82.60;;;;;;5078616;28;20479;-84
2022/08/24 08:43:37;;;;;;;3.87;3.67;;;24.60;83.50;;;;;;5080184;28;20516;-82
2022/08/24 08:46:22;;;;;;;5.53;5.13;;;24.70;82.90;;;;;;5088799;28;20455;-80
2022/08/24 08:49:09;;;;;;;3.40;3.13;;;24.70;80.20;;;;;;5079053;28;20468;-82
2022/08/24 08:52:08;;;;;;;5.73;5.33;;;24.70;79.10;;;;;;5078502;28;20548;-82
2022/08/24 08:54:49;;;;;;;4.53;4.13;;;24.90;80.10;;;;;;5080420;28;20942;-85
2022/08/24 08:57:39;;;;;;;4.10;3.80;;;25.00;78.00;;;;;;5084096;28;20481;-83
2022/08/24 09:00:14;;;;;;;4.33;3.33;;;25.10;78.40;;;;;;5080517;28;20489;-85
2022/08/24 09:03:23;;;;;;;3.47;3.17;;;25.20;75.70;;;;;;5080644;28;20445;-85
2022/08/24 09:06:05;;;;;;;6.53;3.30;;;25.40;76.60;;;;;;5081687;28;20457;-83
2022/08/24 09:08:52;;;;;;;3.60;3.30;;;25.50;74.50;;;;;;5079723;28;20958;-83
2022/08/24 09:11:31;;;;;;;4.23;3.00;;;25.50;71.90;;;;;;5077075;28;20449;-83
2022/08/24 09:14:09;;;;;;;2.73;2.50;;;25.40;67.40;;;;;;5081920;28;20464;-84
2022/08/24 09:16:56;;;;;;;2.70;2.50;;;25.60;66.70;;;;;;5082898;28;20448;-82
2022/08/24 09:19:46;;;;;;;2.90;2.70;;;25.50;65.90;;;;;;5082165;28;20526;-82
2022/08/24 09:22:16;;;;;;;14.83;13.60;;;25.50;67.70;;;;;;5079180;28;20819;-84
2022/08/24 09:25:23;;;;;;;20.90;18.93;;;25.70;68.30;;;;;;5080820;28;20457;-82
2022/08/24 09:28:05;;;;;;;7.23;6.80;;;25.90;68.80;;;;;;5074665;28;20462;-83
2022/08/24 09:30:50;;;;;;;3.40;3.20;;;26.10;69.00;;;;;;5080993;28;20456;-83
2022/08/24 09:33:21;;;;;;;2.73;2.53;;;26.20;68.20;;;;;;5080304;28;20448;-82
2022/08/24 09:36:06;;;;;;;2.80;2.60;;;26.30;64.20;;;;;;5081095;28;20444;-82
2022/08/24 09:39:00;;;;;;;3.20;3.00;;;26.30;64.80;;;;;;5080692;28;20490;-82
2022/08/24 09:42:08;;;;;;;3.20;2.80;;;26.50;66.50;;;;;;5082761;28;20462;-82
2022/08/24 09:45:14;;;;;;;3.30;3.10;;;26.60;66.30;;;;;;5079136;28;20460;-83
2022/08/24 09:48:11;;;;;;;21.70;19.80;;;26.70;65.70;;;;;;5067093;28;20443;-83
2022/08/24 09:51:11;;;;;;;13.60;12.40;;;26.80;63.90;;;;;;5080145;28;20460;-84
2022/08/24 09:54:08;;;;;;;3.33;3.07;;;26.90;63.40;;;;;;5082003;28;20443;-81
2022/08/24 09:56:47;;;;;;;3.93;3.53;;;26.70;60.00;;;;;;5082536;28;20458;-83
2022/08/24 09:59:33;;;;;;;3.47;3.17;;;26.70;60.70;;;;;;5083642;28;20491;-83
2022/08/24 10:02:18;;;;;;;2.60;2.50;;;26.70;63.10;;;;;;5081417;28;20456;-82
2022/08/24 10:04:56;;;;;;;2.90;2.70;;;26.90;63.10;;;;;;5083826;28;20456;-83
2022/08/24 10:07:34;;;;;;;2.40;2.20;;;26.90;60.10;;;;;;5087404;28;20480;-83
2022/08/24 10:10:13;;;;;;;2.60;2.50;;;27.10;62.90;;;;;;5088245;28;20471;-83
2022/08/24 10:12:52;;;;;;;3.80;2.90;;;27.30;63.70;;;;;;5084860;28;20471;-82
2022/08/24 10:15:23;;;;;;;4.10;3.33;;;27.40;62.50;;;;;;5084881;28;20451;-84
2022/08/24 10:18:23;;;;;;;3.80;3.50;;;27.50;62.30;;;;;;5086408;28;20565;-83
2022/08/24 10:21:07;;;;;;;3.20;2.90;;;27.50;61.10;;;;;;5086295;28;20970;-81
2022/08/24 10:23:47;;;;;;;3.30;2.70;;;27.80;63.00;;;;;;5082858;28;20450;-84
2022/08/24 10:26:21;;;;;;;3.20;2.90;;;28.00;59.20;;;;;;5087520;28;20434;-81
2022/08/24 10:29:10;;;;;;;22.10;20.33;;;28.10;58.10;;;;;;5087606;28;20232;-82
2022/08/24 10:31:46;;;;;;;7.20;6.67;;;28.20;59.00;;;;;;5090393;28;20459;-82
2022/08/24 10:34:28;;;;;;;4.53;4.23;;;28.40;58.40;;;;;;5093436;28;20462;-82
2022/08/24 10:37:14;;;;;;;3.53;3.22;;;28.30;57.40;;;;;;5086758;28;20438;-82
2022/08/24 10:40:01;;;;;;;2.77;2.67;;;28.40;59.20;;;;;;5086811;28;20232;-83
2022/08/24 10:45:47;;;;;;;3.00;2.80;;;28.90;59.10;;;;;;5086408;28;20528;-81
2022/08/24 10:48:45;;;;;;;2.97;2.77;;;29.20;58.90;;;;;;5085507;28;20514;-83
2022/08/24 10:51:25;;;;;;;2.93;2.60;;;29.50;56.50;;;;;;5083603;28;20452;-84
2022/08/24 10:53:54;;;;;;;2.70;2.50;;;29.50;54.60;;;;;;5084270;28;20447;-85
2022/08/24 10:56:29;;;;;;;2.47;2.37;;;29.50;53.90;;;;;;5084139;28;20447;-83
2022/08/24 10:59:06;;;;;;;2.90;2.70;;;29.30;53.90;;;;;;5080957;28;20494;-83
2022/08/24 11:01:35;;;;;;;3.10;2.90;;;29.50;54.60;;;;;;5082690;28;20478;-85
2022/08/24 11:04:07;;;;;;;2.93;2.73;;;29.40;53.70;;;;;;5085205;28;20480;-83
2022/08/24 11:06:39;;;;;;;2.53;2.33;;;29.50;54.50;;;;;;5088767;28;20452;-82
2022/08/24 11:09:10;;;;;;;2.70;2.50;;;29.90;53.90;;;;;;5091509;28;20470;-82
2022/08/24 11:11:39;;;;;;;3.80;2.50;;;30.30;54.40;;;;;;5087298;28;20448;-83
2022/08/24 11:14:08;;;;;;;31.20;28.60;;;30.80;53.70;;;;;;5087071;28;20889;-82
2022/08/24 11:16:38;;;;;;;2.77;2.60;;;31.30;53.90;;;;;;5083207;28;20458;-83
2022/08/24 11:19:09;;;;;;;36.73;33.77;;;31.80;50.20;;;;;;5085932;28;20489;-85
2022/08/24 11:21:51;;;;;;;3.83;3.63;;;32.20;50.70;;;;;;5081975;28;20453;-83
2022/08/24 11:24:29;;;;;;;3.20;3.00;;;32.70;51.10;;;;;;5084081;28;20458;-84
2022/08/24 11:26:59;;;;;;;3.07;2.80;;;33.00;48.40;;;;;;5095128;28;20460;-82
2022/08/24 11:29:50;;;;;;;2.63;2.47;;;33.30;49.00;;;;;;5090228;28;20466;-84
2022/08/24 11:32:27;;;;;;;2.87;2.67;;;33.70;48.50;;;;;;5090712;28;20454;-84
2022/08/24 11:34:54;;;;;;;2.57;2.47;;;34.20;47.30;;;;;;5091310;28;20458;-83
2022/08/24 11:37:30;;;;;;;2.90;2.70;;;34.70;47.00;;;;;;5082559;28;20439;-83
2022/08/24 11:39:57;;;;;;;2.60;2.40;;;35.20;44.60;;;;;;5089484;28;20487;-84
2022/08/24 11:42:35;;;;;;;2.80;2.60;;;35.60;42.50;;;;;;5091540;28;20454;-84
2022/08/24 11:45:07;;;;;;;2.07;1.97;;;36.10;43.40;;;;;;5093190;28;20529;-85
2022/08/24 11:47:52;;;;;;;2.50;2.30;;;36.60;40.00;;;;;;5090533;28;20811;-80
2022/08/24 11:50:30;;;;;;;2.97;2.57;;;37.00;39.60;;;;;;5092862;28;20436;-83
2022/08/24 11:53:08;;;;;;;2.07;1.97;;;37.10;38.80;;;;;;5092733;28;20462;-82
2022/08/24 11:55:43;;;;;;;2.30;2.10;;;37.10;37.30;;;;;;5092189;28;20439;-80
2022/08/24 11:58:16;;;;;;;2.37;2.27;;;37.00;34.90;;;;;;5092043;28;20466;-83
2022/08/24 12:00:53;;;;;;;2.10;2.00;;;37.20;36.10;;;;;;5090743;28;20447;-82
2022/08/24 12:03:38;;;;;;;31.47;29.10;;;37.10;33.40;;;;;;5081740;28;20455;-81
2022/08/24 12:06:18;;;;;;;4.60;4.30;;;36.90;34.40;;;;;;5082766;28;20455;-81
2022/08/24 12:08:53;;;;;;;3.27;2.33;;;37.30;34.90;;;;;;5089976;28;20491;-82
2022/08/24 12:11:32;;;;;;;1.90;1.80;;;37.90;34.90;;;;;;5091563;28;20538;-81
2022/08/24 12:14:08;;;;;;;2.00;1.80;;;38.40;33.30;;;;;;5092106;28;20636;-83
2022/08/24 12:16:40;;;;;;;1.67;1.57;;;38.50;31.50;;;;;;5092310;28;20443;-80
2022/08/24 12:19:14;;;;;;;1.77;1.67;;;39.00;31.80;;;;;;5092405;28;20478;-82
2022/08/24 12:21:45;;;;;;;2.83;2.60;;;39.00;30.60;;;;;;5091217;28;20456;-83
2022/08/24 12:24:18;;;;;;;2.00;1.90;;;39.40;31.70;;;;;;5089821;28;20805;-82
2022/08/24 12:26:49;;;;;;;2.20;2.10;;;39.60;30.20;;;;;;5091519;28;20457;-82
2022/08/24 12:29:22;;;;;;;1.97;1.87;;;39.00;30.70;;;;;;5088948;28;20494;-82
2022/08/24 12:31:54;;;;;;;1.97;1.87;;;39.40;30.00;;;;;;5093213;28;20451;-82
2022/08/24 12:34:26;;;;;;;2.10;2.00;;;39.90;30.80;;;;;;5093674;28;20443;-82
2022/08/24 12:37:01;;;;;;;2.77;2.53;;;40.30;30.40;;;;;;5093629;28;20444;-82
2022/08/24 12:39:36;;;;;;;1.60;1.50;;;40.50;28.50;;;;;;5092118;28;20459;-83
2022/08/24 12:42:10;;;;;;;2.10;2.00;;;40.80;28.40;;;;;;5086111;28;20435;-84
2022/08/24 12:44:45;;;;;;;2.43;2.30;;;40.40;28.60;;;;;;5085451;28;20459;-85
2022/08/24 12:47:12;;;;;;;2.37;2.17;;;40.60;28.50;;;;;;5085355;28;20455;-84
2022/08/24 12:49:46;;;;;;;1.80;1.70;;;41.20;29.20;;;;;;5086398;28;20510;-84
2022/08/24 12:52:52;;;;;;;1.97;1.83;;;41.60;28.40;;;;;;5086461;28;20453;-84
2022/08/24 12:55:46;;;;;;;1.90;1.80;;;41.20;26.40;;;;;;5067058;28;20447;-84
2022/08/24 12:58:37;;;;;;;114.73;107.63;;;41.20;26.70;;;;;;5084289;28;20446;-83
2022/08/24 13:01:06;;;;;;;17.20;16.13;;;41.70;28.00;;;;;;5079596;28;20455;-82
2022/08/24 13:03:35;;;;;;;7.30;6.90;;;42.10;27.70;;;;;;5080160;28;20440;-82
2022/08/24 13:06:07;;;;;;;24.20;22.20;;;42.70;27.20;;;;;;5080210;28;20829;-81
2022/08/24 13:08:37;;;;;;;437.20;390.80;;;43.20;25.60;;;;;;5088551;28;20498;-83
2022/08/24 13:11:10;;;;;;;2.80;2.43;;;43.60;26.30;;;;;;5084974;28;20490;-83
2022/08/24 13:13:45;;;;;;;2.13;1.83;;;43.80;25.50;;;;;;5085343;28;20735;-84
2022/08/24 13:16:51;;;;;;;2.10;2.00;;;43.70;24.60;;;;;;5087591;28;20428;-84
2022/08/24 13:19:33;;;;;;;1.80;1.70;;;43.30;25.50;;;;;;5084152;28;20493;-85
2022/08/24 13:22:20;;;;;;;1.50;1.50;;;43.40;25.40;;;;;;5085334;28;20440;-85